createdAt,value
2017-01-09T00:00:58.486Z,0
2017-01-09T00:01:58.944Z,0
2017-01-09T00:02:59.384Z,0
2017-01-09T00:03:58.723Z,0
2017-01-09T00:04:59.166Z,0
2017-01-09T00:05:59.359Z,0
2017-01-09T00:06:59.474Z,0
2017-01-09T00:07:58.938Z,0
2017-01-09T00:08:58.248Z,0
2017-01-09T00:09:59.369Z,0
2017-01-09T00:10:58.505Z,0
2017-01-09T00:11:59.017Z,0
2017-01-09T00:12:58.443Z,0
2017-01-09T00:13:58.539Z,0
2017-01-09T00:14:58.019Z,0
2017-01-09T00:15:58.757Z,0
2017-01-09T00:16:58.676Z,0
2017-01-09T00:17:58.864Z,0
2017-01-09T00:18:57.334Z,0
2017-01-09T00:19:58.685Z,0
2017-01-09T00:20:58.234Z,0
2017-01-09T00:21:57.589Z,0
2017-01-09T00:22:57.794Z,0
2017-01-09T00:23:57.036Z,0
2017-01-09T00:24:58.467Z,0
2017-01-09T00:25:58.214Z,0
2017-01-09T00:26:57.638Z,0
2017-01-09T00:27:57.757Z,0
2017-01-09T00:28:57.660Z,0
2017-01-09T00:29:58.008Z,0
2017-01-09T00:30:58.599Z,0
2017-01-09T00:31:57.608Z,0
2017-01-09T00:32:58.309Z,0
2017-01-09T00:33:57.940Z,0
2017-01-09T00:34:57.962Z,0
2017-01-09T00:35:56.915Z,0
2017-01-09T00:36:57.614Z,0
2017-01-09T00:37:57.177Z,0
2017-01-09T00:38:57.455Z,0
2017-01-09T00:39:58.132Z,0
2017-01-09T00:40:58.399Z,0
2017-01-09T00:41:57.875Z,0
2017-01-09T00:42:56.544Z,0
2017-01-09T00:43:58.147Z,0
2017-01-09T00:44:57.563Z,0
2017-01-09T00:45:58.596Z,0
2017-01-09T00:46:57.440Z,0
2017-01-09T00:47:58.390Z,0
2017-01-09T00:48:58.572Z,0
2017-01-09T00:49:57.901Z,0
2017-01-09T00:50:58.061Z,0
2017-01-09T00:51:58.110Z,0
2017-01-09T00:52:57.795Z,0
2017-01-09T00:53:56.585Z,0
2017-01-09T00:54:57.726Z,0
2017-01-09T00:55:57.284Z,0
2017-01-09T00:56:56.993Z,0
2017-01-09T00:57:57.512Z,0
2017-01-09T00:58:56.623Z,0
2017-01-09T00:59:57.161Z,0
2017-01-09T01:00:56.927Z,0
2017-01-09T01:01:57.541Z,0
2017-01-09T01:02:57.670Z,0
2017-01-09T01:03:57.649Z,0
2017-01-09T01:04:56.993Z,0
2017-01-09T01:05:57.018Z,0
2017-01-09T01:06:57.077Z,0
2017-01-09T01:07:57.057Z,0
2017-01-09T01:08:56.709Z,0
2017-01-09T01:09:57.665Z,0
2017-01-09T01:10:56.579Z,0
2017-01-09T01:11:56.963Z,0
2017-01-09T01:12:57.559Z,0
2017-01-09T01:13:56.258Z,0
2017-01-09T01:14:56.542Z,0
2017-01-09T01:15:57.172Z,0
2017-01-09T01:16:56.579Z,0
2017-01-09T01:17:56.440Z,0
2017-01-09T01:18:56.780Z,0
2017-01-09T01:19:56.416Z,0
2017-01-09T01:20:57.139Z,0
2017-01-09T01:21:57.009Z,0
2017-01-09T01:22:57.348Z,0
2017-01-09T01:23:56.226Z,0
2017-01-09T01:24:56.288Z,0
2017-01-09T01:25:57.447Z,0
2017-01-09T01:26:56.560Z,0
2017-01-09T01:27:55.790Z,0
2017-01-09T01:28:56.505Z,0
2017-01-09T01:29:56.805Z,0
2017-01-09T01:30:56.137Z,0
2017-01-09T01:31:57.282Z,0
2017-01-09T01:32:55.753Z,0
2017-01-09T01:33:56.006Z,0
2017-01-09T01:34:55.942Z,0
2017-01-09T01:35:55.903Z,0
2017-01-09T01:36:57.296Z,0
2017-01-09T01:37:55.627Z,0
2017-01-09T01:38:57.209Z,0
2017-01-09T01:39:56.868Z,0
2017-01-09T01:40:55.465Z,0
2017-01-09T01:41:56.216Z,0
2017-01-09T01:42:56.165Z,0
2017-01-09T01:43:56.447Z,0
2017-01-09T01:44:56.405Z,0
2017-01-09T01:45:56.315Z,0
2017-01-09T01:46:55.865Z,0
2017-01-09T01:47:55.585Z,0
2017-01-09T01:48:56.304Z,0
2017-01-09T01:49:55.948Z,0
2017-01-09T01:50:56.590Z,0
2017-01-09T01:51:56.172Z,0
2017-01-09T01:52:56.576Z,0
2017-01-09T01:53:55.866Z,0
2017-01-09T01:54:55.367Z,0
2017-01-09T01:55:56.028Z,0
2017-01-09T01:56:55.449Z,0
2017-01-09T01:57:55.948Z,0
2017-01-09T01:58:56.028Z,0
2017-01-09T01:59:55.375Z,0
2017-01-09T02:00:55.899Z,0
2017-01-09T02:01:55.246Z,0
2017-01-09T02:02:55.863Z,0
2017-01-09T02:03:55.590Z,0
2017-01-09T02:04:55.169Z,0
2017-01-09T02:05:55.215Z,0
2017-01-09T02:06:55.174Z,0
2017-01-09T02:07:55.795Z,0
2017-01-09T02:08:54.971Z,0
2017-01-09T02:09:56.402Z,0
2017-01-09T02:10:55.667Z,0
2017-01-09T02:11:56.364Z,0
2017-01-09T02:12:54.707Z,0
2017-01-09T02:13:55.539Z,0
2017-01-09T02:14:55.209Z,0
2017-01-09T02:15:56.278Z,0
2017-01-09T02:16:54.928Z,0
2017-01-09T02:17:54.568Z,0
2017-01-09T02:18:55.847Z,0
2017-01-09T02:19:55.225Z,0
2017-01-09T02:20:56.005Z,0
2017-01-09T02:21:55.955Z,0
2017-01-09T02:22:55.395Z,0
2017-01-09T02:23:55.065Z,0
2017-01-09T02:24:55.385Z,0
2017-01-09T02:25:55.252Z,0
2017-01-09T02:26:55.982Z,0
2017-01-09T02:27:55.271Z,0
2017-01-09T02:28:55.149Z,0
2017-01-09T02:29:55.257Z,0
2017-01-09T02:30:55.220Z,0
2017-01-09T02:31:55.039Z,0
2017-01-09T02:32:55.156Z,0
2017-01-09T02:33:54.858Z,0
2017-01-09T02:34:54.694Z,0
2017-01-09T02:35:55.407Z,0
2017-01-09T02:36:54.441Z,0
2017-01-09T02:37:54.366Z,0
2017-01-09T02:38:54.172Z,0
2017-01-09T02:39:54.952Z,0
2017-01-09T02:40:54.195Z,0
2017-01-09T02:41:53.948Z,0
2017-01-09T02:42:53.913Z,0
2017-01-09T02:43:54.390Z,0
2017-01-09T02:44:55.443Z,0
2017-01-09T02:45:54.865Z,0
2017-01-09T02:46:53.770Z,0
2017-01-09T02:47:54.120Z,0
2017-01-09T02:48:54.279Z,0
2017-01-09T02:49:55.385Z,0
2017-01-09T02:50:55.343Z,0
2017-01-09T02:51:54.658Z,0
2017-01-09T02:52:55.280Z,0
2017-01-09T02:53:53.860Z,0
2017-01-09T02:54:54.770Z,0
2017-01-09T02:55:54.944Z,0
2017-01-09T02:56:54.368Z,0
2017-01-09T02:57:54.432Z,0
2017-01-09T02:58:54.814Z,0
2017-01-09T02:59:54.437Z,0
2017-01-09T03:00:54.612Z,0
2017-01-09T03:01:54.054Z,0
2017-01-09T03:02:54.049Z,0
2017-01-09T03:03:54.337Z,0
2017-01-09T03:04:54.388Z,0
2017-01-09T03:05:53.969Z,0
2017-01-09T03:06:53.434Z,0
2017-01-09T03:07:54.563Z,0
2017-01-09T03:08:54.140Z,0
2017-01-09T03:09:53.936Z,0
2017-01-09T03:10:53.359Z,0
2017-01-09T03:11:53.060Z,0
2017-01-09T03:12:54.465Z,0
2017-01-09T03:13:54.077Z,0
2017-01-09T03:14:53.236Z,0
2017-01-09T03:15:54.013Z,0
2017-01-09T03:16:53.661Z,0
2017-01-09T03:17:53.339Z,0
2017-01-09T03:18:53.960Z,0
2017-01-09T03:19:52.579Z,0
2017-01-09T03:20:53.879Z,0
2017-01-09T03:21:53.539Z,0
2017-01-09T03:22:53.505Z,0
2017-01-09T03:23:54.148Z,0
2017-01-09T03:24:53.797Z,0
2017-01-09T03:25:53.160Z,0
2017-01-09T03:26:53.088Z,0
2017-01-09T03:27:53.152Z,0
2017-01-09T03:28:52.297Z,0
2017-01-09T03:29:54.205Z,0
2017-01-09T03:30:52.980Z,0
2017-01-09T03:31:52.821Z,0
2017-01-09T03:32:53.763Z,0
2017-01-09T03:33:53.891Z,0
2017-01-09T03:34:54.202Z,0
2017-01-09T03:35:54.151Z,0
2017-01-09T03:36:52.802Z,0
2017-01-09T03:37:53.479Z,0
2017-01-09T03:38:52.676Z,0
2017-01-09T03:39:52.675Z,0
2017-01-09T03:40:53.156Z,0
2017-01-09T03:41:53.332Z,0
2017-01-09T03:42:53.172Z,0
2017-01-09T03:43:52.688Z,0
2017-01-09T03:44:53.434Z,0
2017-01-09T03:45:53.471Z,0
2017-01-09T03:46:53.143Z,0
2017-01-09T03:47:53.834Z,0
2017-01-09T03:48:52.284Z,0
2017-01-09T03:49:53.134Z,0
2017-01-09T03:50:52.974Z,0
2017-01-09T03:51:53.762Z,0
2017-01-09T03:52:51.578Z,0
2017-01-09T03:53:52.695Z,0
2017-01-09T03:54:52.411Z,0
2017-01-09T03:55:52.324Z,0
2017-01-09T03:56:53.017Z,0
2017-01-09T03:57:52.449Z,0
2017-01-09T03:58:52.621Z,0
2017-01-09T03:59:52.148Z,0
2017-01-09T04:00:53.163Z,0
2017-01-09T04:01:52.199Z,0
2017-01-09T04:02:52.578Z,0
2017-01-09T04:03:52.555Z,0
2017-01-09T04:04:52.588Z,0
2017-01-09T04:05:51.757Z,0
2017-01-09T04:06:52.195Z,0
2017-01-09T04:07:53.373Z,0
2017-01-09T04:08:52.006Z,0
2017-01-09T04:09:52.061Z,0
2017-01-09T04:10:52.683Z,0
2017-01-09T04:11:52.566Z,0
2017-01-09T04:12:52.472Z,0
2017-01-09T04:13:53.126Z,0
2017-01-09T04:14:52.355Z,0
2017-01-09T04:15:51.816Z,0
2017-01-09T04:16:52.344Z,0
2017-01-09T04:17:52.401Z,0
2017-01-09T04:18:52.899Z,0
2017-01-09T04:19:52.685Z,0
2017-01-09T04:20:51.581Z,0
2017-01-09T04:21:51.578Z,0
2017-01-09T04:22:52.594Z,0
2017-01-09T04:23:51.365Z,0
2017-01-09T04:24:51.725Z,0
2017-01-09T04:25:52.730Z,0
2017-01-09T04:26:52.831Z,0
2017-01-09T04:27:52.813Z,0
2017-01-09T04:28:51.474Z,0
2017-01-09T04:29:51.764Z,0
2017-01-09T04:30:52.723Z,0
2017-01-09T04:31:52.692Z,0
2017-01-09T04:32:51.652Z,0
2017-01-09T04:33:51.698Z,0
2017-01-09T04:34:51.928Z,0
2017-01-09T04:35:52.246Z,0
2017-01-09T04:36:52.579Z,0
2017-01-09T04:37:51.209Z,0
2017-01-09T04:38:51.689Z,0
2017-01-09T04:39:51.503Z,0
2017-01-09T04:40:51.791Z,0
2017-01-09T04:41:50.697Z,0
2017-01-09T04:42:50.979Z,0
2017-01-09T04:43:51.055Z,0
2017-01-09T04:44:51.346Z,0
2017-01-09T04:45:51.995Z,0
2017-01-09T04:46:51.009Z,0
2017-01-09T04:47:50.847Z,0
2017-01-09T04:48:51.597Z,0
2017-01-09T04:49:51.898Z,0
2017-01-09T04:50:50.735Z,0
2017-01-09T04:51:51.524Z,0
2017-01-09T04:52:51.493Z,0
2017-01-09T04:53:50.831Z,0
2017-01-09T04:54:50.710Z,0
2017-01-09T04:55:51.917Z,0
2017-01-09T04:56:50.629Z,0
2017-01-09T04:57:51.658Z,0
2017-01-09T04:58:50.249Z,0
2017-01-09T04:59:50.960Z,0
2017-01-09T05:00:50.621Z,0
2017-01-09T05:01:51.836Z,0
2017-01-09T05:02:51.885Z,0
2017-01-09T05:03:50.445Z,0
2017-01-09T05:04:51.165Z,0
2017-01-09T05:05:50.063Z,0
2017-01-09T05:06:50.930Z,0
2017-01-09T05:07:51.733Z,0
2017-01-09T05:08:50.754Z,0
2017-01-09T05:09:51.015Z,0
2017-01-09T05:10:50.362Z,0
2017-01-09T05:11:50.101Z,0
2017-01-09T05:12:49.960Z,0
2017-01-09T05:13:50.269Z,0
2017-01-09T05:14:51.221Z,0
2017-01-09T05:15:50.786Z,0
2017-01-09T05:16:49.868Z,0
2017-01-09T05:17:50.615Z,0
2017-01-09T05:18:49.983Z,0
2017-01-09T05:19:50.007Z,0
2017-01-09T05:20:50.437Z,0
2017-01-09T05:21:51.105Z,0
2017-01-09T05:22:50.448Z,0
2017-01-09T05:23:50.514Z,0
2017-01-09T05:24:50.943Z,0
2017-01-09T05:25:50.540Z,0
2017-01-09T05:26:50.629Z,0
2017-01-09T05:27:50.532Z,0
2017-01-09T05:28:50.551Z,0
2017-01-09T05:29:49.849Z,0
2017-01-09T05:30:50.482Z,0
2017-01-09T05:31:49.386Z,0
2017-01-09T05:32:50.100Z,0
2017-01-09T05:33:50.350Z,0
2017-01-09T05:34:49.908Z,0
2017-01-09T05:35:49.716Z,0
2017-01-09T05:36:50.307Z,0
2017-01-09T05:37:49.945Z,0
2017-01-09T05:38:49.697Z,0
2017-01-09T05:39:50.237Z,0
2017-01-09T05:40:49.966Z,0
2017-01-09T05:41:49.853Z,0
2017-01-09T05:42:49.869Z,0
2017-01-09T05:43:49.825Z,0
2017-01-09T05:44:50.633Z,0
2017-01-09T05:45:49.363Z,0
2017-01-09T05:46:50.053Z,0
2017-01-09T05:47:49.921Z,0
2017-01-09T05:48:48.951Z,0
2017-01-09T05:49:49.644Z,0
2017-01-09T05:50:49.790Z,0
2017-01-09T05:51:50.269Z,0
2017-01-09T05:52:49.656Z,0
2017-01-09T05:53:49.869Z,0
2017-01-09T05:54:48.686Z,0
2017-01-09T05:55:49.680Z,0
2017-01-09T05:56:50.126Z,0
2017-01-09T05:57:49.216Z,0
2017-01-09T05:58:49.750Z,0
2017-01-09T05:59:49.724Z,0
2017-01-09T06:00:50.094Z,0
2017-01-09T06:01:49.314Z,0
2017-01-09T06:02:49.473Z,0
2017-01-09T06:03:50.113Z,0
2017-01-09T06:04:48.852Z,0
2017-01-09T06:05:50.062Z,0
2017-01-09T06:06:49.576Z,0
2017-01-09T06:07:48.830Z,0
2017-01-09T06:08:49.277Z,0
2017-01-09T06:09:49.960Z,0
2017-01-09T06:10:49.944Z,0
2017-01-09T06:11:48.619Z,0
2017-01-09T06:12:49.276Z,0
2017-01-09T06:13:49.317Z,0
2017-01-09T06:14:49.547Z,0
2017-01-09T06:15:49.661Z,0
2017-01-09T06:16:49.605Z,0
2017-01-09T06:17:47.852Z,0
2017-01-09T06:18:49.570Z,0
2017-01-09T06:19:48.883Z,0
2017-01-09T06:20:48.723Z,0
2017-01-09T06:21:49.773Z,0
2017-01-09T06:22:49.792Z,0
2017-01-09T06:23:48.014Z,0
2017-01-09T06:24:48.897Z,0
2017-01-09T06:25:47.768Z,0
2017-01-09T06:26:49.001Z,0
2017-01-09T06:27:49.320Z,0
2017-01-09T06:28:49.272Z,0
2017-01-09T06:29:48.928Z,0
2017-01-09T06:30:49.554Z,0
2017-01-09T06:31:48.529Z,0
2017-01-09T06:32:49.508Z,0
2017-01-09T06:33:48.161Z,0
2017-01-09T06:34:49.465Z,0
2017-01-09T06:35:49.094Z,0
2017-01-09T06:36:48.744Z,0
2017-01-09T06:37:49.243Z,0
2017-01-09T06:38:47.934Z,0
2017-01-09T06:39:47.782Z,0
2017-01-09T06:40:47.152Z,0
2017-01-09T06:41:49.117Z,0
2017-01-09T06:42:48.109Z,0
2017-01-09T06:43:47.792Z,0
2017-01-09T06:44:48.179Z,0
2017-01-09T06:45:47.753Z,0
2017-01-09T06:46:48.550Z,0
2017-01-09T06:47:49.118Z,0
2017-01-09T06:48:48.081Z,0
2017-01-09T06:49:48.750Z,0
2017-01-09T06:50:47.606Z,0
2017-01-09T06:51:47.683Z,0
2017-01-09T06:52:47.715Z,0
2017-01-09T06:53:47.315Z,0
2017-01-09T06:54:46.822Z,0
2017-01-09T06:55:47.904Z,0
2017-01-09T06:56:48.883Z,0
2017-01-09T06:57:48.182Z,0
2017-01-09T06:58:47.722Z,0
2017-01-09T06:59:47.962Z,0
2017-01-09T07:00:47.432Z,0
2017-01-09T07:01:47.942Z,0
2017-01-09T07:02:48.564Z,0
2017-01-09T07:03:48.523Z,0
2017-01-09T07:04:46.939Z,0
2017-01-09T07:05:48.003Z,0
2017-01-09T07:06:47.291Z,0
2017-01-09T07:07:47.291Z,4
2017-01-09T07:08:47.230Z,4
2017-01-09T07:09:48.173Z,0
2017-01-09T07:10:48.013Z,0
2017-01-09T07:11:47.124Z,4
2017-01-09T07:12:47.133Z,4
2017-01-09T07:13:46.370Z,0
2017-01-09T07:14:47.658Z,4
2017-01-09T07:15:47.035Z,4
2017-01-09T07:16:46.627Z,4
2017-01-09T07:17:47.870Z,4
2017-01-09T07:18:46.974Z,8
2017-01-09T07:19:46.816Z,8
2017-01-09T07:20:46.591Z,8
2017-01-09T07:21:47.136Z,8
2017-01-09T07:22:46.854Z,12
2017-01-09T07:23:46.026Z,12
2017-01-09T07:24:46.746Z,16
2017-01-09T07:25:48.005Z,12
2017-01-09T07:26:47.005Z,16
2017-01-09T07:27:48.173Z,16
2017-01-09T07:28:46.972Z,20
2017-01-09T07:29:46.924Z,20
2017-01-09T07:30:47.229Z,20
2017-01-09T07:31:46.210Z,24
2017-01-09T07:32:47.242Z,28
2017-01-09T07:33:47.252Z,32
2017-01-09T07:34:46.570Z,36
2017-01-09T07:35:45.778Z,36
2017-01-09T07:36:47.558Z,40
2017-01-09T07:37:46.881Z,40
2017-01-09T07:38:46.627Z,44
2017-01-09T07:39:45.681Z,44
2017-01-09T07:40:46.957Z,48
2017-01-09T07:41:45.635Z,48
2017-01-09T07:42:46.286Z,52
2017-01-09T07:43:47.285Z,60
2017-01-09T07:44:46.933Z,60
2017-01-09T07:45:46.865Z,64
2017-01-09T07:46:47.520Z,72
2017-01-09T07:47:46.220Z,72
2017-01-09T07:48:47.154Z,80
2017-01-09T07:49:46.453Z,84
2017-01-09T07:50:46.066Z,88
2017-01-09T07:51:46.809Z,92
2017-01-09T07:52:46.742Z,100
2017-01-09T07:53:45.714Z,104
2017-01-09T07:54:46.656Z,112
2017-01-09T07:55:46.158Z,112
2017-01-09T07:56:45.797Z,120
2017-01-09T07:57:46.907Z,128
2017-01-09T07:58:46.898Z,136
2017-01-09T07:59:45.905Z,144
2017-01-09T08:00:46.846Z,152
2017-01-09T08:01:46.833Z,156
2017-01-09T08:02:45.073Z,160
2017-01-09T08:03:45.833Z,168
2017-01-09T08:04:46.743Z,172
2017-01-09T08:05:46.454Z,180
2017-01-09T08:06:46.337Z,192
2017-01-09T08:07:47.003Z,200
2017-01-09T08:08:45.652Z,208
2017-01-09T08:09:45.514Z,220
2017-01-09T08:10:46.187Z,228
2017-01-09T08:11:46.249Z,240
2017-01-09T08:12:46.511Z,248
2017-01-09T08:13:46.499Z,256
2017-01-09T08:14:45.819Z,264
2017-01-09T08:15:45.794Z,268
2017-01-09T08:16:46.094Z,276
2017-01-09T08:17:46.062Z,292
2017-01-09T08:18:46.376Z,316
2017-01-09T08:19:46.656Z,348
2017-01-09T08:20:46.302Z,372
2017-01-09T08:21:46.414Z,392
2017-01-09T08:22:45.550Z,400
2017-01-09T08:23:46.387Z,400
2017-01-09T08:24:46.632Z,408
2017-01-09T08:25:45.854Z,420
2017-01-09T08:26:45.839Z,436
2017-01-09T08:27:45.138Z,452
2017-01-09T08:28:45.133Z,480
2017-01-09T08:29:45.730Z,496
2017-01-09T08:30:45.277Z,512
2017-01-09T08:31:44.718Z,540
2017-01-09T08:32:46.032Z,572
2017-01-09T08:33:45.219Z,592
2017-01-09T08:34:45.201Z,604
2017-01-09T08:35:46.256Z,644
2017-01-09T08:36:45.618Z,676
2017-01-09T08:37:45.205Z,704
2017-01-09T08:38:45.245Z,744
2017-01-09T08:39:44.551Z,776
2017-01-09T08:40:44.434Z,776
2017-01-09T08:41:44.780Z,764
2017-01-09T08:42:45.731Z,764
2017-01-09T08:43:45.380Z,784
2017-01-09T08:44:45.361Z,844
2017-01-09T08:45:45.022Z,844
2017-01-09T08:46:45.340Z,812
2017-01-09T08:47:44.988Z,792
2017-01-09T08:48:45.248Z,792
2017-01-09T08:49:45.924Z,804
2017-01-09T08:50:44.517Z,848
2017-01-09T08:51:45.087Z,868
2017-01-09T08:52:45.480Z,884
2017-01-09T08:53:45.169Z,884
2017-01-09T08:54:45.125Z,928
2017-01-09T08:55:45.106Z,1024
2017-01-09T08:56:44.962Z,1028
2017-01-09T08:57:45.038Z,960
2017-01-09T08:58:45.017Z,912
2017-01-09T08:59:44.916Z,896
2017-01-09T09:00:44.970Z,884
2017-01-09T09:01:45.277Z,864
2017-01-09T09:02:45.438Z,860
2017-01-09T09:03:45.530Z,876
2017-01-09T09:04:45.402Z,888
2017-01-09T09:05:45.556Z,968
2017-01-09T09:06:45.161Z,1172
2017-01-09T09:07:43.948Z,1332
2017-01-09T09:08:44.772Z,1344
2017-01-09T09:09:44.428Z,1328
2017-01-09T09:10:44.357Z,1368
2017-01-09T09:11:44.466Z,1556
2017-01-09T09:12:44.557Z,1708
2017-01-09T09:13:44.537Z,1724
2017-01-09T09:14:45.110Z,1664
2017-01-09T09:15:44.613Z,1636
2017-01-09T09:16:44.541Z,1664
2017-01-09T09:17:44.498Z,1752
2017-01-09T09:18:44.212Z,1864
2017-01-09T09:19:44.226Z,2136
2017-01-09T09:20:45.087Z,2412
2017-01-09T09:21:45.375Z,2552
2017-01-09T09:22:43.980Z,2520
2017-01-09T09:23:43.319Z,2480
2017-01-09T09:24:43.929Z,2292
2017-01-09T09:25:44.336Z,2100
2017-01-09T09:26:43.967Z,1988
2017-01-09T09:27:44.317Z,2064
2017-01-09T09:28:43.826Z,2224
2017-01-09T09:29:43.456Z,2356
2017-01-09T09:30:44.508Z,2644
2017-01-09T09:31:44.726Z,2984
2017-01-09T09:32:43.872Z,3396
2017-01-09T09:33:44.435Z,3820
2017-01-09T09:34:43.755Z,4192
2017-01-09T09:35:43.513Z,4588
2017-01-09T09:36:44.040Z,4788
2017-01-09T09:37:44.222Z,4588
2017-01-09T09:38:43.353Z,4448
2017-01-09T09:39:43.981Z,4264
2017-01-09T09:40:42.941Z,3652
2017-01-09T09:41:44.324Z,3312
2017-01-09T09:42:43.780Z,3264
2017-01-09T09:43:43.799Z,3316
2017-01-09T09:44:43.860Z,3268
2017-01-09T09:45:43.413Z,3332
2017-01-09T09:46:43.158Z,3588
2017-01-09T09:47:43.290Z,3600
2017-01-09T09:48:43.393Z,3592
2017-01-09T09:49:42.855Z,3536
2017-01-09T09:50:44.340Z,3380
2017-01-09T09:51:44.215Z,3324
2017-01-09T09:52:44.048Z,3104
2017-01-09T09:53:43.439Z,3020
2017-01-09T09:54:42.964Z,3152
2017-01-09T09:55:44.009Z,3364
2017-01-09T09:56:43.442Z,3376
2017-01-09T09:57:42.900Z,3336
2017-01-09T09:58:43.673Z,3344
2017-01-09T09:59:42.895Z,3156
2017-01-09T10:00:42.159Z,3100
2017-01-09T10:01:43.374Z,3004
2017-01-09T10:02:43.251Z,3024
2017-01-09T10:03:42.307Z,3032
2017-01-09T10:04:43.025Z,3104
2017-01-09T10:05:44.049Z,3184
2017-01-09T10:06:42.625Z,3136
2017-01-09T10:07:43.056Z,3140
2017-01-09T10:08:42.933Z,3168
2017-01-09T10:09:43.741Z,3060
2017-01-09T10:10:42.868Z,2980
2017-01-09T10:11:42.015Z,2896
2017-01-09T10:12:43.088Z,2736
2017-01-09T10:13:43.641Z,2760
2017-01-09T10:14:43.274Z,2884
2017-01-09T10:15:42.003Z,3072
2017-01-09T10:16:43.248Z,2988
2017-01-09T10:17:42.037Z,2808
2017-01-09T10:18:42.291Z,3040
2017-01-09T10:19:42.692Z,3428
2017-01-09T10:20:42.823Z,3940
2017-01-09T10:21:43.429Z,4136
2017-01-09T10:22:42.134Z,4352
2017-01-09T10:23:42.758Z,4372
2017-01-09T10:24:41.478Z,4292
2017-01-09T10:25:42.211Z,4340
2017-01-09T10:26:42.836Z,4480
2017-01-09T10:27:42.386Z,4380
2017-01-09T10:28:42.515Z,4108
2017-01-09T10:29:43.067Z,3696
2017-01-09T10:30:42.059Z,4020
2017-01-09T10:31:42.585Z,4348
2017-01-09T10:32:42.884Z,4640
2017-01-09T10:33:41.924Z,4572
2017-01-09T10:34:41.873Z,4856
2017-01-09T10:35:42.568Z,5316
2017-01-09T10:36:42.581Z,5280
2017-01-09T10:37:42.495Z,5120
2017-01-09T10:38:42.837Z,5832
2017-01-09T10:39:42.813Z,6124
2017-01-09T10:40:41.740Z,6048
2017-01-09T10:41:42.120Z,6424
2017-01-09T10:42:42.100Z,6220
2017-01-09T10:43:42.903Z,5792
2017-01-09T10:44:42.087Z,5748
2017-01-09T10:45:41.593Z,6108
2017-01-09T10:46:41.897Z,6348
2017-01-09T10:47:42.310Z,5528
2017-01-09T10:48:42.956Z,4928
2017-01-09T10:49:42.882Z,5484
2017-01-09T10:50:42.207Z,3920
2017-01-09T10:51:41.590Z,3320
2017-01-09T10:52:41.943Z,3064
2017-01-09T10:53:41.491Z,3168
2017-01-09T10:54:42.817Z,4316
2017-01-09T10:55:41.806Z,4900
2017-01-09T10:56:41.822Z,5824
2017-01-09T10:57:42.379Z,6608
2017-01-09T10:58:42.092Z,6960
2017-01-09T10:59:42.700Z,6832
2017-01-09T11:00:41.008Z,6324
2017-01-09T11:01:41.635Z,5512
2017-01-09T11:02:41.288Z,5384
2017-01-09T11:03:42.155Z,5312
2017-01-09T11:04:42.113Z,4956
2017-01-09T11:05:42.535Z,4960
2017-01-09T11:06:41.189Z,5092
2017-01-09T11:07:41.768Z,4996
2017-01-09T11:08:41.395Z,4844
2017-01-09T11:09:41.770Z,4068
2017-01-09T11:10:41.365Z,3584
2017-01-09T11:11:42.144Z,3352
2017-01-09T11:12:42.273Z,3152
2017-01-09T11:13:41.683Z,3180
2017-01-09T11:14:41.552Z,3148
2017-01-09T11:15:42.088Z,2984
2017-01-09T11:16:41.642Z,2932
2017-01-09T11:17:41.170Z,2900
2017-01-09T11:18:41.509Z,2856
2017-01-09T11:19:41.225Z,2904
2017-01-09T11:20:40.548Z,2744
2017-01-09T11:21:40.527Z,2528
2017-01-09T11:22:41.402Z,2256
2017-01-09T11:23:40.807Z,2008
2017-01-09T11:24:41.427Z,1912
2017-01-09T11:25:41.161Z,1912
2017-01-09T11:26:39.994Z,1992
2017-01-09T11:27:41.701Z,2032
2017-01-09T11:28:40.784Z,2224
2017-01-09T11:29:40.662Z,2304
2017-01-09T11:30:41.413Z,2160
2017-01-09T11:31:41.593Z,2108
2017-01-09T11:32:40.932Z,2008
2017-01-09T11:33:41.223Z,1816
2017-01-09T11:34:40.725Z,1712
2017-01-09T11:35:40.247Z,1616
2017-01-09T11:36:40.414Z,1492
2017-01-09T11:37:40.810Z,1484
2017-01-09T11:38:41.039Z,1532
2017-01-09T11:39:41.071Z,1564
2017-01-09T11:40:40.397Z,1504
2017-01-09T11:41:40.373Z,1520
2017-01-09T11:42:40.986Z,1624
2017-01-09T11:43:40.951Z,1600
2017-01-09T11:44:40.217Z,1648
2017-01-09T11:45:40.255Z,1676
2017-01-09T11:46:40.846Z,1504
2017-01-09T11:47:41.524Z,1316
2017-01-09T11:48:41.375Z,1248
2017-01-09T11:49:40.175Z,1256
2017-01-09T11:50:40.472Z,1248
2017-01-09T11:51:40.782Z,1232
2017-01-09T11:52:40.062Z,1296
2017-01-09T11:53:40.409Z,1432
2017-01-09T11:54:39.348Z,1564
2017-01-09T11:55:39.621Z,1708
2017-01-09T11:56:41.006Z,2072
2017-01-09T11:57:39.778Z,2080
2017-01-09T11:58:40.805Z,2096
2017-01-09T11:59:40.366Z,2136
2017-01-09T12:00:40.752Z,2004
2017-01-09T12:01:39.159Z,1916
2017-01-09T12:02:40.377Z,2032
2017-01-09T12:03:40.343Z,2404
2017-01-09T12:04:40.133Z,2668
2017-01-09T12:05:41.093Z,3176
2017-01-09T12:06:40.211Z,3344
2017-01-09T12:07:39.640Z,3696
2017-01-09T12:08:40.675Z,5104
2017-01-09T12:09:40.670Z,4180
2017-01-09T12:10:39.334Z,3568
2017-01-09T12:11:40.005Z,3072
2017-01-09T12:12:40.614Z,3328
2017-01-09T12:13:40.935Z,3444
2017-01-09T12:14:39.653Z,2892
2017-01-09T12:15:39.885Z,2736
2017-01-09T12:16:40.263Z,2620
2017-01-09T12:17:39.095Z,2576
2017-01-09T12:18:39.425Z,2612
2017-01-09T12:19:39.740Z,2516
2017-01-09T12:20:39.522Z,2356
2017-01-09T12:21:39.650Z,2188
2017-01-09T12:22:39.076Z,2096
2017-01-09T12:23:40.027Z,2028
2017-01-09T12:24:40.328Z,1940
2017-01-09T12:25:40.313Z,1796
2017-01-09T12:26:39.214Z,1728
2017-01-09T12:27:39.272Z,1696
2017-01-09T12:28:40.226Z,1668
2017-01-09T12:29:39.884Z,1716
2017-01-09T12:30:40.196Z,1796
2017-01-09T12:31:39.113Z,1776
2017-01-09T12:32:40.298Z,1728
2017-01-09T12:33:38.887Z,1648
2017-01-09T12:34:39.934Z,1616
2017-01-09T12:35:39.745Z,1716
2017-01-09T12:36:38.752Z,1880
2017-01-09T12:37:40.033Z,2036
2017-01-09T12:38:39.862Z,2144
2017-01-09T12:39:38.584Z,2204
2017-01-09T12:40:39.580Z,2216
2017-01-09T12:41:39.899Z,2132
2017-01-09T12:42:39.564Z,1940
2017-01-09T12:43:38.478Z,1712
2017-01-09T12:44:38.220Z,1544
2017-01-09T12:45:38.740Z,1472
2017-01-09T12:46:39.447Z,1436
2017-01-09T12:47:39.983Z,1396
2017-01-09T12:48:39.757Z,1344
2017-01-09T12:49:40.046Z,1388
2017-01-09T12:50:38.625Z,1408
2017-01-09T12:51:37.957Z,1432
2017-01-09T12:52:38.679Z,1452
2017-01-09T12:53:38.760Z,1476
2017-01-09T12:54:38.647Z,1520
2017-01-09T12:55:38.537Z,1540
2017-01-09T12:56:38.897Z,1584
2017-01-09T12:57:38.901Z,1628
2017-01-09T12:58:39.535Z,1576
2017-01-09T12:59:39.027Z,1524
2017-01-09T13:00:38.091Z,1444
2017-01-09T13:01:38.371Z,1416
2017-01-09T13:02:38.744Z,1344
2017-01-09T13:03:38.323Z,1264
2017-01-09T13:04:38.713Z,1304
2017-01-09T13:05:38.143Z,1380
2017-01-09T13:06:38.936Z,1456
2017-01-09T13:07:38.986Z,1520
2017-01-09T13:08:38.219Z,1532
2017-01-09T13:09:38.197Z,1640
2017-01-09T13:10:38.907Z,1676
2017-01-09T13:11:39.554Z,1856
2017-01-09T13:12:37.873Z,1856
2017-01-09T13:13:38.811Z,1764
2017-01-09T13:14:38.163Z,1772
2017-01-09T13:15:38.308Z,1844
2017-01-09T13:16:38.742Z,2152
2017-01-09T13:17:38.001Z,2408
2017-01-09T13:18:39.020Z,2684
2017-01-09T13:19:38.681Z,2572
2017-01-09T13:20:38.357Z,2308
2017-01-09T13:21:37.997Z,2120
2017-01-09T13:22:39.325Z,1952
2017-01-09T13:23:38.623Z,1796
2017-01-09T13:24:37.935Z,1648
2017-01-09T13:25:38.866Z,1484
2017-01-09T13:26:38.551Z,1368
2017-01-09T13:27:38.255Z,1236
2017-01-09T13:28:38.142Z,1072
2017-01-09T13:29:38.654Z,912
2017-01-09T13:30:37.673Z,756
2017-01-09T13:31:37.793Z,680
2017-01-09T13:32:38.064Z,680
2017-01-09T13:33:37.692Z,712
2017-01-09T13:34:37.352Z,764
2017-01-09T13:35:38.252Z,764
2017-01-09T13:36:38.587Z,756
2017-01-09T13:37:38.940Z,808
2017-01-09T13:38:38.892Z,792
2017-01-09T13:39:37.649Z,788
2017-01-09T13:40:36.719Z,760
2017-01-09T13:41:38.807Z,740
2017-01-09T13:42:38.528Z,728
2017-01-09T13:43:38.774Z,756
2017-01-09T13:44:37.466Z,788
2017-01-09T13:45:37.957Z,840
2017-01-09T13:46:36.986Z,896
2017-01-09T13:47:38.003Z,888
2017-01-09T13:48:38.654Z,936
2017-01-09T13:49:38.313Z,996
2017-01-09T13:50:37.854Z,1044
2017-01-09T13:51:37.223Z,1108
2017-01-09T13:52:38.222Z,1116
2017-01-09T13:53:37.891Z,1104
2017-01-09T13:54:37.856Z,1052
2017-01-09T13:55:37.168Z,1000
2017-01-09T13:56:37.711Z,976
2017-01-09T13:57:37.713Z,968
2017-01-09T13:58:37.420Z,960
2017-01-09T13:59:36.989Z,956
2017-01-09T14:00:38.074Z,952
2017-01-09T14:01:37.013Z,964
2017-01-09T14:02:37.544Z,924
2017-01-09T14:03:36.907Z,836
2017-01-09T14:04:36.963Z,772
2017-01-09T14:05:36.887Z,772
2017-01-09T14:06:36.934Z,748
2017-01-09T14:07:37.205Z,720
2017-01-09T14:08:36.794Z,708